Nearby METAR Reports

 

CYUL - Montreal/Dorval, Quebec, Canada
Distance from station: ENE 6km
Updated: 10/15/2021 17:00 EDT
Overcast
Overcast
 Wind from NNE
Wind: NNE 7 km/h
Temperature: 19°C
Dew Point: 17°C
Humidity: 88%
Barometer: 1009.5 hPa
Clouds: Overcast
Visibility: 16 km
Cloud details: Overcast 823 m
2021/10/15 21:00 CYUL 152100Z 02004KT 10SM OVC027 19/17 A2981 RMK SC8 SLP096 DENSITY ALT 700FT
CWVQ - Ste Anne De Bell, Quebec, Canada
Distance from station: WSW 10km
Updated: 10/15/2021 17:00 EDT

 Wind from N
Wind: N 6 km/h
Temperature: 18°C
Dew Point: 17°C
Humidity: 94%
2021/10/15 21:00 CWVQ 152100Z AUTO 01003KT 18/17 RMK AO1 SLP096 T01830166 52001
 
CWTA - Mc Tavish (aut), Quebec, Canada
Distance from station: ENE 18km
Updated: 10/15/2021 17:00 EDT

 Wind from N
Wind: N 6 km/h
Temperature: 19°C
Dew Point: 16°C
Humidity: 83%
2021/10/15 21:00 CWTA 152100Z AUTO 01003KT 19/16 RMK AO1 SLP098 T01880163 53001
CYMX - Montreal/Mirabel, Quebec, Canada
Distance from station: NW 29km
Updated: 10/15/2021 17:00 EDT
Mist, Overcast
Mist, Overcast
 Wind from ENE
Wind: ENE 6 km/h
Temperature: 17°C
Dew Point: 15°C
Humidity: 88%
Barometer: 1009.8 hPa
Summary: Mist
Clouds: Overcast
Visibility: 8 km
Cloud details: Overcast 701 m
2021/10/15 21:00 CYMX 152100Z 06003KT 010V100 5SM BR OVC023 17/15 A2982 RMK SC8 SLP100 DENSITY ALT 700FT
 
CYHU - Saint Hubert Arp, Quebec, Canada
Distance from station: ENE 31km
Updated: 10/15/2021 17:00 EDT
Overcast
Overcast
 Wind from NNW
Wind: NNW 9 km/h
Temperature: 19°C
Dew Point: 17°C
Humidity: 88%
Barometer: 1009.5 hPa
Clouds: Overcast
Visibility: 13 km
Cloud details: Overcast 1006 m
2021/10/15 21:00 CYHU 152100Z AUTO 34005KT 8SM OVC033 19/17 A2981 RMK SLP098 DENSITY ALT 700FT
CWIT - St Clothilde (a, Quebec, Canada
Distance from station: SSE 33km
Updated: 10/15/2021 17:00 EDT

 Wind from WNW
Wind: WNW 2 km/h
Temperature: 21°C
Dew Point: 17°C
Humidity: 78%
2021/10/15 21:00 CWIT 152100Z AUTO 29001KT 21/17 RMK AO1 SLP092 T02090172 53003
 
CWIZ - L'acadie, Quebec, Canada
Distance from station: ESE 41km
Updated: 10/15/2021 17:00 EDT

 Wind from S
Wind: S 9 km/h
Temperature: 20°C
Dew Point: 16°C
Humidity: 78%
2021/10/15 21:00 CWIZ 152100Z AUTO 19005KT 20/16 RMK AO1 T02020164
CWHM - Varennes, Quebec, Canada
Distance from station: NE 45km
Updated: 10/25/2016 10:00 EDT
NOT Current

 Wind from W
Wind: W 19 km/h, Gust: 28 km/h
Temperature: 4°C
Wind Chill: 0°C
Dew Point: -2°C
Humidity: 65%
2016/10/25 14:00 CWHM 251400Z AUTO 28010G15KT 04/M02 RMK AO1 PK WND 28018/1302 T00391017
 
CWEW - L'assomption, Quebec, Canada
Distance from station: NE 50km
Updated: 10/15/2021 17:00 EDT

 Wind from N
Wind: N 4 km/h
Temperature: 16°C
Dew Point: 15°C
Humidity: 94%
2021/10/15 21:00 CWEW 152100Z AUTO 35002KT 16/15 RMK AO1 5003 SLP105 T01630153 50003
CWBZ - St Anicet, Quebec, Canada
Distance from station: SW 52km
Updated: 10/15/2021 17:00 EDT

 Wind from W
Wind: W 6 km/h
Temperature: 20°C
Dew Point: 18°C
Humidity: 88%
2021/10/15 21:00 CWBZ 152100Z AUTO 27003KT 20/18 RMK AO1 SLP089 T02040177 50002
 
KFSO - Highgate, Vermont, USA
Distance from station: SE 79km
Updated: 10/15/2021 10:35 EDT
NOT Current

 
2021/10/15 14:35 KFSO 151435Z AUTO RMK AO2 PWINO
CMGB - Granby, Quebec, Canada
Distance from station: E 81km
Updated: 10/15/2021 17:00 EDT

 Wind from WSW
Wind: WSW 6 km/h
Temperature: 20°C
Dew Point: 17°C
Humidity: 83%
2021/10/15 21:00 CMGB 152100Z AUTO 25003KT 20/17 RMK AO1 SLP097 T02030166 56001
 
CWJT - St Jovite (autob, Quebec, Canada
Distance from station: NW 88km
Updated: 10/15/2021 17:00 EDT

 Wind from calm
Wind: Calm
Temperature: 17°C
Dew Point: 16°C
Humidity: 94%
2021/10/15 21:00 CWJT 152100Z AUTO 00000KT 17/16 RMK AO1 SLP094 T01660155 56002
CWFQ - Frelighsburg, Quebec, Canada
Distance from station: ESE 90km
Updated: 10/15/2021 17:00 EDT

 Wind from S
Wind: S 7 km/h
Temperature: 20°C
Dew Point: 16°C
Humidity: 78%
2021/10/15 21:00 CWFQ 152100Z AUTO 18004KT 20/16 RMK AO1 SLP100 T01980156 56002
 
KPBG - Plattsburgh Afb, New York, USA
Distance from station: SSE 93km
Updated: 10/15/2021 16:53 EDT
Overcast
Overcast
 Wind from SSE
Wind: SSE 11 km/h
Temperature: 20°C
Dew Point: 17°C
Humidity: 83%
Barometer: 1009.8 hPa
Clouds: Overcast
Visibility: 16 km
Cloud details: Mostly cloudy 1676 m
Overcast 2134 m
2021/10/15 20:53 KPBG 152053Z AUTO 15006KT 10SM BKN055 OVC070 20/17 A2982 RMK AO2 SLP096 T02000167 56002
KMSS - Massena, New York, USA
Distance from station: SW 100km
Updated: 10/15/2021 17:19 EDT
Mist, Overcast
Mist, Overcast
 Wind from WSW
Wind: WSW 6 km/h
Temperature: 19°C
Dew Point: 18°C
Humidity: 94%
Barometer: 1010.2 hPa
Summary: Mist
Clouds: Overcast
Visibility: 6 km
Cloud details: Partly cloudy 305 m
Overcast 610 m
2021/10/15 21:19 KMSS 152119Z AUTO 24003KT 4SM BR SCT010 OVC020 19/18 A2983 RMK AO2 T01940183
 
CWBS - Lac St Pierre (a, Quebec, Canada
Distance from station: NE 106km
Updated: 10/15/2021 17:00 EDT

 Wind from NNW
Wind: NNW 9 km/h
Temperature: 17°C
Dew Point: 16°C
Humidity: 94%
2021/10/15 21:00 CWBS 152100Z AUTO 33005KT 17/16 RMK AO1 T01710159
KBTV - Burlington, Vermont, USA
Distance from station: SSE 121km
Updated: 10/15/2021 16:54 EDT
Overcast
Overcast
 Wind from SSW
Wind: SSW 11 km/h
Temperature: 21°C
Dew Point: 16°C
Humidity: 73%
Barometer: 1010.5 hPa
Clouds: Overcast
Visibility: 16 km
Cloud details: Mostly cloudy 1036 m
Mostly cloudy 1311 m
Overcast 1524 m
2021/10/15 20:54 KBTV 152054Z 20006KT 10SM BKN034 BKN043 OVC050 21/16 A2984 RMK AO2 SLP105 T02110156 55001
 
KSLK - Saranac Lake, New York, USA
Distance from station: SSW 121km
Updated: 10/15/2021 16:59 EDT
Overcast
Overcast
 Wind from S
Wind: S 7 km/h
Temperature: 19°C
Dew Point: 17°C
Humidity: 88%
Barometer: 1010.8 hPa
Clouds: Overcast
Visibility: 16 km
Cloud details: Mostly cloudy 244 m
Mostly cloudy 1128 m
Overcast 1981 m
2021/10/15 20:59 KSLK 152059Z AUTO 19004KT 10SM BKN008 BKN037 OVC065 19/17 A2985 RMK AO2 T01890172
CWNQ - Nicolet (autob), Quebec, Canada
Distance from station: NE 123km
Updated: 10/15/2021 17:00 EDT

 Wind from NE
Wind: NE 6 km/h
Temperature: 18°C
Dew Point: 15°C
Humidity: 83%
2021/10/15 21:00 CWNQ 152100Z AUTO 04003KT 18/15 RMK AO1 SLP099 T01760154 55002
 
KMWN - Mount Washington, New Hampshire, USA
Distance from station: SE 237km
Updated: 10/15/2021 16:52 EDT
Fog, Overcast
Fog, Overcast
 Wind from W
Wind: W 41 km/h
Temperature: 8°C
Wind Chill: 3°C
Dew Point: 8°C
Humidity: 100%
Summary: Fog
Clouds: Overcast
Visibility: 0 km
Cloud details: Overcast 0 m
2021/10/15 20:52 KMWN 152052Z 27022KT 0SM FG VV000 08/08 RMK
CYVR - Vancouver Intl A, British Columbia, Canada
Distance from station: NW 3676km
Updated: 10/15/2021 17:12 EDT
Light rain, Mist, Overcast
Light rain, Mist, Overcast
 Wind from ESE
Wind: ESE 24 km/h, Gust: 41 km/h
Temperature: 12°C
Dew Point: 11°C
Humidity: 94%
Barometer: 1018.6 hPa
Summary: Light rain, Mist
Clouds: Overcast
Visibility: 10 km
Cloud details: Partly cloudy 274 m
Partly cloudy 610 m
Overcast 1250 m
2021/10/15 21:12 CYVR 152112Z 11013G22KT 6SM -RA BR SCT009 SCT020 OVC041 12/11 A3008 RMK CU3SC1NS5 SC TR SLP187